createdAt,value
2018-07-13T00:02:28.015Z,17.00
2018-07-13T00:04:58.679Z,16.90
2018-07-13T00:07:29.365Z,16.90
2018-07-13T00:09:59.972Z,16.80
2018-07-13T00:12:30.456Z,16.70
2018-07-13T00:15:09.407Z,16.70
2018-07-13T00:17:40.177Z,16.50
2018-07-13T00:20:10.866Z,16.60
2018-07-13T00:22:41.490Z,16.70
2018-07-13T00:25:12.012Z,16.80
2018-07-13T00:27:42.485Z,16.70
2018-07-13T00:30:13.045Z,16.80
2018-07-13T00:32:43.732Z,16.70
2018-07-13T00:35:14.470Z,16.60
2018-07-13T00:37:45.233Z,16.60
2018-07-13T00:40:15.955Z,16.50
2018-07-13T00:42:46.674Z,16.40
2018-07-13T00:45:17.281Z,16.20
2018-07-13T00:52:48.734Z,16.40
2018-07-13T00:55:19.364Z,16.40
2018-07-13T00:57:49.941Z,16.50
2018-07-13T01:00:33.383Z,16.50
2018-07-13T01:03:04.771Z,16.50
2018-07-13T01:05:35.339Z,16.50
2018-07-13T01:08:05.995Z,16.40
2018-07-13T01:13:06.622Z,16.30
2018-07-13T01:15:37.274Z,16.30
2018-07-13T01:18:07.769Z,16.20
2018-07-13T01:20:38.379Z,16.10
2018-07-13T01:23:09.080Z,16.10
2018-07-13T01:25:40.240Z,16.10
2018-07-13T01:28:10.757Z,16.00
2018-07-13T01:30:41.369Z,16.00
2018-07-13T01:33:12.382Z,16.00
2018-07-13T01:35:43.174Z,16.00
2018-07-13T01:38:13.762Z,16.00
2018-07-13T01:43:14.449Z,15.80
2018-07-13T01:45:44.929Z,15.70
2018-07-13T01:50:45.829Z,15.70
2018-07-13T01:53:16.645Z,15.60
2018-07-13T01:55:47.362Z,15.70
2018-07-13T01:58:17.807Z,15.60
2018-07-13T02:00:48.347Z,15.60
2018-07-13T02:03:19.136Z,15.60
2018-07-13T02:05:49.773Z,15.50
2018-07-13T02:08:20.431Z,15.40
2018-07-13T02:10:51.005Z,15.30
2018-07-13T02:13:21.593Z,15.30
2018-07-13T02:18:22.344Z,15.20
2018-07-13T02:20:53.003Z,15.20
2018-07-13T02:23:23.579Z,15.20
2018-07-13T02:25:54.250Z,15.20
2018-07-13T02:28:25.439Z,15.30
2018-07-13T02:30:56.121Z,15.30
2018-07-13T02:33:26.814Z,15.30
2018-07-13T02:35:57.423Z,15.30
2018-07-13T02:38:27.992Z,15.20
2018-07-13T02:40:58.739Z,15.30
2018-07-13T02:43:29.393Z,15.30
2018-07-13T02:46:00.228Z,15.30
2018-07-13T02:48:30.978Z,15.20
2018-07-13T02:51:01.585Z,15.00
2018-07-13T02:53:32.210Z,14.90
2018-07-13T02:56:02.757Z,14.90
2018-07-13T02:58:33.600Z,14.90
2018-07-13T03:01:04.679Z,14.90
2018-07-13T03:03:35.245Z,15.00
2018-07-13T03:06:05.877Z,15.00
2018-07-13T03:08:36.669Z,15.00
2018-07-13T03:11:07.215Z,14.90
2018-07-13T03:13:37.771Z,14.90
2018-07-13T03:16:08.324Z,14.90
2018-07-13T03:21:15.872Z,15.00
2018-07-13T03:23:47.178Z,15.00
2018-07-13T03:26:17.774Z,14.90
2018-07-13T03:28:49.273Z,15.00
2018-07-13T03:31:20.362Z,15.00
2018-07-13T03:33:51.133Z,14.90
2018-07-13T03:36:21.629Z,15.00
2018-07-13T03:38:52.199Z,15.10
2018-07-13T03:41:22.848Z,15.10
2018-07-13T03:43:53.632Z,15.10
2018-07-13T03:46:24.165Z,15.20
2018-07-13T03:48:54.717Z,15.30
2018-07-13T03:51:25.459Z,15.30
2018-07-13T03:53:55.885Z,15.40
2018-07-13T03:56:26.622Z,15.50
2018-07-13T03:58:57.240Z,15.50
2018-07-13T04:01:28.173Z,15.60
2018-07-13T04:06:31.933Z,15.70
2018-07-13T04:09:02.537Z,15.80
2018-07-13T04:11:33.084Z,15.80
2018-07-13T04:14:03.724Z,15.90
2018-07-13T04:16:34.432Z,16.00
2018-07-13T04:19:05.384Z,16.00
2018-07-13T04:21:36.002Z,16.10
2018-07-13T04:26:37.208Z,16.40
2018-07-13T04:29:07.828Z,16.40
2018-07-13T04:31:38.610Z,16.50
2018-07-13T04:34:09.089Z,16.60
2018-07-13T04:36:39.806Z,16.80
2018-07-13T04:39:12.070Z,16.80
2018-07-13T04:41:42.810Z,16.90
2018-07-13T04:44:13.437Z,17.00
2018-07-13T04:46:44.158Z,17.00
2018-07-13T04:49:15.536Z,17.00
2018-07-13T04:51:46.090Z,17.00
2018-07-13T04:54:17.040Z,17.10
2018-07-13T04:56:47.929Z,17.20
2018-07-13T04:59:18.858Z,17.30
2018-07-13T05:01:49.586Z,17.50
2018-07-13T05:04:20.537Z,17.70
2018-07-13T05:06:51.489Z,17.80
2018-07-13T05:09:22.314Z,17.90
2018-07-13T05:11:53.892Z,18.10
2018-07-13T05:14:24.497Z,18.30
2018-07-13T05:16:55.425Z,18.50
2018-07-13T05:19:26.188Z,18.60
2018-07-13T05:21:56.894Z,18.80
2018-07-13T05:24:27.631Z,19.10
2018-07-13T05:26:58.175Z,19.30
2018-07-13T05:29:29.515Z,19.50
2018-07-13T05:32:00.230Z,19.70
2018-07-13T05:34:30.998Z,19.90
2018-07-13T05:37:01.618Z,20.00
2018-07-13T05:39:32.415Z,20.30
2018-07-13T05:42:03.120Z,21.10
2018-07-13T05:44:33.731Z,22.40
2018-07-13T05:47:04.265Z,23.90
2018-07-13T05:49:35.012Z,24.70
2018-07-13T05:52:05.525Z,25.40
2018-07-13T05:54:36.251Z,26.00
2018-07-13T05:57:06.878Z,26.50
2018-07-13T05:59:37.524Z,27.10
2018-07-13T06:02:08.150Z,28.10
2018-07-13T06:04:38.884Z,29.10
2018-07-13T06:07:09.488Z,30.00
2018-07-13T06:09:40.406Z,30.30
2018-07-13T06:12:11.188Z,29.80
2018-07-13T06:14:41.697Z,29.30
2018-07-13T06:17:12.154Z,29.10
2018-07-13T06:19:42.879Z,29.50
2018-07-13T06:22:13.500Z,30.40
2018-07-13T06:24:44.139Z,31.50
2018-07-13T06:27:14.820Z,32.40
2018-07-13T06:29:45.784Z,33.10
2018-07-13T06:32:16.428Z,33.80
2018-07-13T06:34:47.076Z,34.20
2018-07-13T06:37:20.608Z,34.90
2018-07-13T06:39:51.144Z,35.00
2018-07-13T06:42:21.757Z,35.10
2018-07-13T06:44:52.491Z,35.60
2018-07-13T06:49:53.416Z,36.00
2018-07-13T06:52:24.240Z,36.30
2018-07-13T06:57:41.955Z,37.40
2018-07-13T07:01:02.510Z,37.70
2018-07-13T07:03:36.279Z,38.30
2018-07-13T07:06:13.346Z,38.00
2018-07-13T07:08:49.477Z,38.10
2018-07-13T07:11:19.828Z,38.10
2018-07-13T07:13:50.450Z,38.20
2018-07-13T07:16:21.020Z,38.30
2018-07-13T07:18:51.507Z,38.30
2018-07-13T07:21:22.153Z,38.60
2018-07-13T07:23:52.780Z,38.30
2018-07-13T07:26:23.558Z,38.50
2018-07-13T07:28:54.319Z,39.50
2018-07-13T07:31:24.917Z,40.10
2018-07-13T07:33:55.556Z,40.20
2018-07-13T07:36:26.023Z,40.50
2018-07-13T07:38:56.792Z,40.80
2018-07-13T07:41:27.544Z,40.70
2018-07-13T07:43:58.385Z,40.80
2018-07-13T07:46:28.934Z,41.60
2018-07-13T07:48:59.485Z,41.80
2018-07-13T07:51:30.101Z,41.90
2018-07-13T07:54:00.717Z,42.30
2018-07-13T07:56:31.395Z,42.80
2018-07-13T07:59:02.103Z,42.90
2018-07-13T08:01:32.711Z,42.60
2018-07-13T08:04:03.404Z,42.40
2018-07-13T08:06:33.932Z,42.40
2018-07-13T08:09:05.307Z,42.00
2018-07-13T08:11:36.544Z,42.40
2018-07-13T08:14:07.930Z,42.70
2018-07-13T08:16:38.534Z,43.30
2018-07-13T08:19:09.077Z,43.60
2018-07-13T08:21:43.581Z,43.60
2018-07-13T08:24:20.312Z,42.50
2018-07-13T08:26:57.255Z,42.30
2018-07-13T08:29:34.101Z,42.80
2018-07-13T08:32:05.111Z,43.20
2018-07-13T08:34:35.643Z,43.00
2018-07-13T08:37:06.315Z,43.00
2018-07-13T08:39:36.882Z,43.30
2018-07-13T08:42:07.704Z,43.10
2018-07-13T08:44:38.534Z,43.10
2018-07-13T08:47:09.111Z,42.60
2018-07-13T08:49:39.836Z,43.00
2018-07-13T08:52:10.551Z,43.00
2018-07-13T08:54:41.312Z,42.80
2018-07-13T08:57:12.010Z,43.00
2018-07-13T08:59:42.699Z,43.00
2018-07-13T09:02:13.367Z,43.30
2018-07-13T09:04:43.993Z,42.60
2018-07-13T09:07:15.425Z,41.70
2018-07-13T09:09:46.229Z,42.00
2018-07-13T09:12:16.743Z,41.90
2018-07-13T09:14:47.438Z,42.10
2018-07-13T09:17:18.694Z,42.10
2018-07-13T09:19:49.344Z,41.90
2018-07-13T09:22:20.106Z,42.40
2018-07-13T09:24:50.798Z,41.50
2018-07-13T09:29:51.653Z,42.40
2018-07-13T09:32:22.206Z,42.10
2018-07-13T09:34:52.821Z,43.40
2018-07-13T09:37:24.015Z,43.90
2018-07-13T09:39:55.858Z,43.50
2018-07-13T09:42:26.578Z,43.50
2018-07-13T09:44:57.195Z,43.40
2018-07-13T09:47:28.322Z,44.10
2018-07-13T09:49:59.072Z,44.20
2018-07-13T09:52:29.696Z,43.90
2018-07-13T09:55:06.881Z,42.40
2018-07-13T09:57:37.575Z,41.40
2018-07-13T10:00:10.320Z,40.80
2018-07-13T10:02:41.083Z,41.20
2018-07-13T10:05:11.661Z,42.00
2018-07-13T10:07:42.534Z,41.90
2018-07-13T10:10:13.248Z,42.40
2018-07-13T10:12:43.981Z,41.80
2018-07-13T10:15:14.696Z,41.40
2018-07-13T10:17:45.348Z,41.70
2018-07-13T10:20:16.069Z,41.30
2018-07-13T10:22:46.609Z,39.40
2018-07-13T10:25:17.430Z,37.90
2018-07-13T10:27:48.070Z,36.30
2018-07-13T10:30:18.810Z,36.00
2018-07-13T10:32:49.399Z,36.20
2018-07-13T10:35:20.226Z,37.60
2018-07-13T10:37:50.709Z,39.00
2018-07-13T10:40:21.320Z,40.60
2018-07-13T10:42:51.853Z,39.70
2018-07-13T10:47:52.732Z,38.30
2018-07-13T10:50:23.601Z,38.90
2018-07-13T10:52:54.144Z,39.90
2018-07-13T10:55:25.062Z,40.00
2018-07-13T10:57:55.746Z,40.80
2018-07-13T11:00:26.282Z,41.10
2018-07-13T11:02:57.022Z,39.50
2018-07-13T11:05:27.564Z,37.80
2018-07-13T11:07:58.322Z,36.00
2018-07-13T11:10:29.042Z,34.80
2018-07-13T11:12:59.529Z,34.70
2018-07-13T11:15:30.060Z,35.70
2018-07-13T11:18:00.553Z,36.20
2018-07-13T11:20:31.207Z,36.40
2018-07-13T11:23:02.056Z,35.70
2018-07-13T11:25:32.756Z,35.20
2018-07-13T11:28:03.397Z,35.00
2018-07-13T11:30:34.044Z,34.70
2018-07-13T11:33:05.129Z,34.30
2018-07-13T11:35:35.786Z,33.70
2018-07-13T11:38:06.563Z,33.40
2018-07-13T11:40:37.170Z,33.20
2018-07-13T11:43:07.908Z,33.30
2018-07-13T11:45:38.757Z,33.20
2018-07-13T11:48:09.229Z,33.10
2018-07-13T11:50:40.018Z,33.10
2018-07-13T11:53:10.650Z,33.40
2018-07-13T11:55:41.523Z,33.20
2018-07-13T11:58:12.138Z,33.00
2018-07-13T12:00:42.786Z,33.10
2018-07-13T12:03:13.309Z,33.30
2018-07-13T12:05:43.933Z,33.40
2018-07-13T12:08:14.928Z,33.00
2018-07-13T12:10:52.122Z,33.10
2018-07-13T12:13:22.748Z,32.80
2018-07-13T12:15:53.226Z,32.00
2018-07-13T12:18:23.870Z,31.60
2018-07-13T12:20:54.657Z,31.30
2018-07-13T12:23:25.113Z,31.20
2018-07-13T12:28:25.863Z,31.20
2018-07-13T12:30:56.417Z,31.70
2018-07-13T12:33:27.224Z,31.90
2018-07-13T12:35:57.771Z,32.40
2018-07-13T12:38:28.371Z,32.40
2018-07-13T12:40:59.035Z,32.70
2018-07-13T12:43:29.656Z,32.60
2018-07-13T12:46:06.812Z,32.60
2018-07-13T12:48:37.445Z,32.50
2018-07-13T12:51:08.922Z,32.60
2018-07-13T12:53:39.395Z,32.50
2018-07-13T12:56:10.102Z,32.40
2018-07-13T12:58:41.373Z,32.50
2018-07-13T13:01:12.054Z,32.80
2018-07-13T13:03:42.876Z,33.00
2018-07-13T13:06:13.429Z,32.50
2018-07-13T13:08:44.201Z,32.50
2018-07-13T13:11:15.016Z,32.50
2018-07-13T13:13:46.254Z,31.80
2018-07-13T13:16:16.930Z,31.90
2018-07-13T13:18:47.502Z,32.00
2018-07-13T13:21:18.129Z,32.20
2018-07-13T13:23:55.471Z,32.50
2018-07-13T13:26:26.024Z,32.90
2018-07-13T13:28:56.527Z,33.20
2018-07-13T13:31:27.368Z,33.30
2018-07-13T13:33:57.954Z,33.30
2018-07-13T13:36:28.515Z,33.10
2018-07-13T13:38:58.992Z,32.70
2018-07-13T13:41:29.526Z,32.40
2018-07-13T13:44:00.002Z,32.40
2018-07-13T13:46:30.620Z,31.90
2018-07-13T13:49:01.348Z,31.70
2018-07-13T13:51:32.057Z,31.70
2018-07-13T13:54:02.900Z,31.50
2018-07-13T13:56:33.649Z,31.30
2018-07-13T13:59:04.354Z,31.20
2018-07-13T14:01:35.062Z,30.80
2018-07-13T14:04:05.843Z,30.70
2018-07-13T14:06:36.786Z,31.00
2018-07-13T14:09:08.248Z,30.80
2018-07-13T14:11:38.884Z,31.00
2018-07-13T14:14:09.497Z,31.00
2018-07-13T14:16:40.171Z,31.10
2018-07-13T14:19:10.638Z,31.10
2018-07-13T14:21:41.153Z,31.00
2018-07-13T14:26:41.960Z,31.00
2018-07-13T14:29:13.215Z,31.00
2018-07-13T14:31:43.804Z,31.00
2018-07-13T14:34:14.555Z,30.70
2018-07-13T14:36:45.437Z,30.30
2018-07-13T14:39:16.131Z,30.30
2018-07-13T14:41:46.845Z,30.10
2018-07-13T14:44:17.522Z,29.90
2018-07-13T14:46:48.114Z,29.70
2018-07-13T14:49:18.753Z,29.60
2018-07-13T14:51:49.594Z,29.60
2018-07-13T14:54:20.226Z,29.30
2018-07-13T14:56:50.746Z,29.40
2018-07-13T14:59:21.235Z,29.30
2018-07-13T15:01:51.898Z,29.30
2018-07-13T15:04:22.738Z,29.40
2018-07-13T15:06:53.657Z,29.60
2018-07-13T15:09:24.220Z,29.80
2018-07-13T15:11:55.024Z,29.90
2018-07-13T15:14:25.659Z,29.90
2018-07-13T15:16:56.378Z,29.90
2018-07-13T15:19:27.252Z,30.10
2018-07-13T15:21:57.980Z,30.10
2018-07-13T15:24:28.580Z,30.00
2018-07-13T15:26:59.161Z,30.00
2018-07-13T15:29:29.841Z,29.90
2018-07-13T15:32:00.505Z,29.90
2018-07-13T15:34:31.446Z,29.60
2018-07-13T15:37:02.185Z,29.50
2018-07-13T15:39:37.202Z,29.40
2018-07-13T15:42:08.812Z,29.10
2018-07-13T15:44:39.497Z,29.00
2018-07-13T15:49:40.976Z,29.10
2018-07-13T15:52:11.592Z,29.00
2018-07-13T15:54:42.319Z,28.80
2018-07-13T15:57:12.922Z,28.60
2018-07-13T15:59:43.473Z,28.60
2018-07-13T16:02:14.014Z,28.30
2018-07-13T16:07:14.667Z,28.20
2018-07-13T16:12:15.687Z,28.40
2018-07-13T16:14:46.374Z,28.40
2018-07-13T16:17:17.098Z,28.40
2018-07-13T16:19:47.824Z,28.40
2018-07-13T16:22:18.698Z,28.30
2018-07-13T16:24:49.267Z,28.00
2018-07-13T16:27:19.908Z,27.80
2018-07-13T16:29:50.580Z,27.80
2018-07-13T16:32:21.120Z,27.70
2018-07-13T16:34:51.717Z,27.60
2018-07-13T16:37:22.353Z,27.60
2018-07-13T16:39:53.623Z,27.50
2018-07-13T16:42:24.287Z,27.40
2018-07-13T16:44:54.873Z,27.50
2018-07-13T16:49:56.535Z,27.50
2018-07-13T16:52:27.218Z,27.50
2018-07-13T16:54:57.900Z,27.70
2018-07-13T16:57:28.664Z,27.60
2018-07-13T16:59:59.374Z,27.60
2018-07-13T17:02:30.115Z,27.60
2018-07-13T17:05:00.790Z,27.60
2018-07-13T17:07:31.268Z,27.60
2018-07-13T17:10:02.647Z,27.60
2018-07-13T17:12:33.146Z,27.60
2018-07-13T17:15:03.703Z,27.40
2018-07-13T17:17:34.453Z,27.30
2018-07-13T17:20:05.112Z,27.20
2018-07-13T17:22:35.605Z,27.20
2018-07-13T17:25:06.415Z,27.20
2018-07-13T17:27:37.040Z,27.20
2018-07-13T17:30:09.478Z,27.30
2018-07-13T17:32:40.154Z,27.30
2018-07-13T17:35:10.981Z,27.30
2018-07-13T17:37:41.877Z,27.20
2018-07-13T17:40:12.617Z,27.20
2018-07-13T17:42:43.352Z,27.10
2018-07-13T17:45:14.045Z,26.90
2018-07-13T17:47:46.090Z,26.90
2018-07-13T17:50:16.885Z,26.80
2018-07-13T17:52:47.579Z,26.60
2018-07-13T17:55:18.299Z,26.40
2018-07-13T17:57:48.801Z,26.30
2018-07-13T18:02:49.299Z,25.80
2018-07-13T18:05:20.135Z,25.60
2018-07-13T18:07:50.754Z,25.40
2018-07-13T18:10:21.565Z,25.10
2018-07-13T18:15:22.512Z,24.60
2018-07-13T18:20:24.229Z,24.30
2018-07-13T18:22:54.840Z,24.10
2018-07-13T18:27:55.982Z,23.60
2018-07-13T18:32:56.726Z,23.00
2018-07-13T18:35:27.462Z,22.80
2018-07-13T18:37:58.695Z,22.70
2018-07-13T18:40:29.336Z,22.50
2018-07-13T18:42:59.972Z,22.40
2018-07-13T18:45:30.734Z,22.30
2018-07-13T18:48:01.366Z,22.00
2018-07-13T18:50:32.205Z,21.90
2018-07-13T18:53:02.898Z,21.90
2018-07-13T18:55:34.133Z,21.70
2018-07-13T18:58:04.710Z,21.60
2018-07-13T19:00:35.552Z,21.50
2018-07-13T19:03:06.651Z,21.40
2018-07-13T19:05:37.454Z,21.30
2018-07-13T19:08:08.165Z,21.20
2018-07-13T19:10:38.784Z,21.10
2018-07-13T19:15:39.690Z,21.00
2018-07-13T19:18:10.898Z,21.00
2018-07-13T19:23:11.541Z,20.80
2018-07-13T19:25:42.293Z,20.70
2018-07-13T19:28:12.815Z,20.60
2018-07-13T19:30:44.208Z,20.50
2018-07-13T19:33:14.973Z,20.40
2018-07-13T19:35:45.625Z,20.30
2018-07-13T19:38:16.252Z,20.30
2018-07-13T19:40:47.044Z,20.30
2018-07-13T19:43:17.623Z,20.40
2018-07-13T19:45:48.230Z,20.30
2018-07-13T19:53:19.310Z,20.20
2018-07-13T19:55:50.138Z,20.20
2018-07-13T19:58:20.848Z,20.20
2018-07-13T20:00:51.376Z,20.20
2018-07-13T20:03:21.969Z,20.20
2018-07-13T20:05:52.599Z,20.20
2018-07-13T20:08:23.333Z,20.20
2018-07-13T20:10:54.002Z,20.20
2018-07-13T20:13:24.641Z,20.20
2018-07-13T20:15:55.320Z,20.10
2018-07-13T20:18:26.460Z,20.10
2018-07-13T20:20:57.178Z,20.10
2018-07-13T20:23:27.883Z,20.10
2018-07-13T20:25:58.611Z,20.10
2018-07-13T20:28:29.319Z,20.00
2018-07-13T20:31:00.149Z,20.00
2018-07-13T20:33:30.771Z,20.00
2018-07-13T20:36:01.191Z,20.00
2018-07-13T20:38:31.741Z,20.00
2018-07-13T20:41:02.287Z,20.00
2018-07-13T20:43:33.057Z,19.90
2018-07-13T20:46:03.846Z,19.90
2018-07-13T20:48:35.847Z,19.80
2018-07-13T20:51:06.572Z,19.70
2018-07-13T20:53:37.261Z,19.70
2018-07-13T20:56:08.105Z,19.60
2018-07-13T20:58:38.830Z,19.60
2018-07-13T21:01:09.715Z,19.50
2018-07-13T21:03:40.478Z,19.50
2018-07-13T21:08:41.401Z,19.50
2018-07-13T21:11:11.904Z,19.40
2018-07-13T21:13:42.668Z,19.40
2018-07-13T21:16:13.238Z,19.40
2018-07-13T21:18:44.084Z,19.40
2018-07-13T21:21:14.698Z,19.30
2018-07-13T21:23:45.348Z,19.30
2018-07-13T21:26:16.166Z,19.20
2018-07-13T21:28:46.794Z,19.20
2018-07-13T21:31:18.076Z,19.20
2018-07-13T21:33:49.325Z,19.30
2018-07-13T21:36:20.345Z,19.20
2018-07-13T21:38:51.689Z,19.20
2018-07-13T21:41:22.325Z,19.10
2018-07-13T21:43:52.905Z,19.10
2018-07-13T21:46:23.640Z,19.00
2018-07-13T21:48:54.265Z,18.90
2018-07-13T21:51:24.895Z,18.90
2018-07-13T21:53:55.583Z,18.90
2018-07-13T21:56:26.740Z,18.90
2018-07-13T21:58:57.273Z,18.80
2018-07-13T22:01:27.941Z,18.80
2018-07-13T22:03:58.598Z,18.70
2018-07-13T22:06:29.348Z,18.60
2018-07-13T22:08:59.942Z,18.60
2018-07-13T22:11:30.636Z,18.60
2018-07-13T22:14:01.313Z,18.60
2018-07-13T22:16:32.394Z,18.60
2018-07-13T22:19:03.221Z,18.60
2018-07-13T22:21:34.574Z,18.50
2018-07-13T22:24:05.188Z,18.50
2018-07-13T22:29:06.256Z,18.50
2018-07-13T22:31:36.921Z,18.40
2018-07-13T22:34:10.617Z,18.50
2018-07-13T22:36:41.130Z,18.50
2018-07-13T22:39:11.860Z,18.40
2018-07-13T22:41:42.350Z,18.30
2018-07-13T22:44:13.033Z,18.30
2018-07-13T22:46:43.752Z,18.30
2018-07-13T22:49:15.000Z,18.20
2018-07-13T22:51:45.489Z,18.10
2018-07-13T22:54:16.264Z,18.00
2018-07-13T22:59:16.893Z,17.90
2018-07-13T23:01:47.366Z,17.90
2018-07-13T23:04:17.957Z,17.90
2018-07-13T23:09:18.718Z,17.90
2018-07-13T23:11:49.394Z,17.90
2018-07-13T23:14:20.054Z,17.80
2018-07-13T23:16:50.902Z,18.00
2018-07-13T23:19:21.565Z,18.10
2018-07-13T23:21:52.618Z,18.00
2018-07-13T23:24:23.359Z,17.90
2018-07-13T23:26:54.133Z,17.90
2018-07-13T23:31:55.076Z,17.70
2018-07-13T23:34:25.648Z,17.60
2018-07-13T23:36:56.201Z,17.60
2018-07-13T23:39:26.918Z,17.60
2018-07-13T23:41:57.552Z,17.60
2018-07-13T23:44:28.185Z,17.60
2018-07-13T23:46:58.702Z,17.60
2018-07-13T23:49:32.144Z,17.60
2018-07-13T23:52:02.841Z,17.60
2018-07-13T23:54:33.477Z,17.60
2018-07-13T23:57:04.194Z,17.70
2018-07-13T23:59:35.091Z,17.80
